Time;durP1;ratioP1;P1;durP2;ratioP2;P2;SDS_P1;SDS_P2;PMS_P1;PMS_P2;Temp;Humidity;BMP_temperature;BMP_pressure;BME280_temperature;BME280_humidity;BME280_pressure;Samples;Min_cycle;Max_cycle;Signal;HPM_P1;HPM_P2
2022/05/19 00:01:14;;;;;;;16.85;7.75;;;;;;;3.59;80.31;99223.59;1719889;80;21035;-82
2022/05/19 00:03:40;;;;;;;18.87;9.28;;;;;;;3.62;77.44;99219.66;1730133;80;21129;-83
2022/05/19 00:06:07;;;;;;;17.95;9.88;;;;;;;3.52;78.64;99221.94;1711625;82;21715;-84
2022/05/19 00:08:33;;;;;;;21.90;8.93;;;;;;;3.45;81.30;99220.58;1708720;80;21045;-84
2022/05/19 00:11:02;;;;;;;20.77;9.23;;;;;;;3.44;80.34;99219.45;1743216;82;20897;-84
2022/05/19 00:13:28;;;;;;;19.05;9.63;;;;;;;3.36;81.32;99227.98;1742962;81;21107;-84
2022/05/19 00:15:54;;;;;;;21.05;8.48;;;;;;;3.31;81.15;99225.08;1743200;82;21745;-84
2022/05/19 00:18:20;;;;;;;20.08;9.13;;;;;;;3.26;81.03;99222.72;1742057;81;20933;-81
2022/05/19 00:20:46;;;;;;;18.25;8.35;;;;;;;3.25;80.36;99218.39;1709283;80;20974;-84
2022/05/19 00:23:13;;;;;;;15.90;7.83;;;;;;;3.17;81.49;99222.09;1719063;81;21068;-81
2022/05/19 00:25:39;;;;;;;17.15;7.92;;;;;;;3.17;80.18;99231.46;1719788;82;21447;-84
2022/05/19 00:28:05;;;;;;;19.10;9.83;;;;;;;3.11;81.04;99227.73;1702957;84;21152;-83
2022/05/19 00:30:33;;;;;;;19.35;8.63;;;;;;;3.06;79.95;99222.14;1740016;80;21092;-84
2022/05/19 00:32:59;;;;;;;22.37;10.48;;;;;;;3.02;82.41;99234.30;1743224;81;21009;-84
2022/05/19 00:35:24;;;;;;;19.23;8.73;;;;;;;3.04;83.14;99225.54;1741570;80;20996;-83
2022/05/19 00:37:50;;;;;;;18.77;9.70;;;;;;;3.08;83.00;99228.66;1743229;81;20965;-84
2022/05/19 00:40:18;;;;;;;22.58;8.13;;;;;;;3.10;81.75;99232.78;1742969;82;21134;-84
2022/05/19 00:42:44;;;;;;;20.43;8.65;;;;;;;3.08;82.52;99226.80;1743114;81;22050;-84
2022/05/19 00:45:17;;;;;;;19.98;9.05;;;;;;;3.06;82.65;99234.70;1743164;82;20909;-83
2022/05/19 00:48:03;;;;;;;18.50;8.33;;;;;;;3.02;82.25;99234.81;1741475;81;21000;-81
2022/05/19 00:50:50;;;;;;;13.75;6.97;;;;;;;3.01;81.46;99237.19;1722599;82;21017;-83
2022/05/19 00:53:28;;;;;;;15.72;8.38;;;;;;;2.93;78.87;99232.00;1743029;81;21782;-81
2022/05/19 00:55:54;;;;;;;17.25;8.83;;;;;;;2.89;81.94;99232.08;1734717;82;21016;-81
2022/05/19 00:58:27;;;;;;;15.90;7.85;;;;;;;2.91;83.92;99232.21;1716741;80;20905;-80
2022/05/19 01:00:54;;;;;;;18.32;8.25;;;;;;;2.99;82.22;99234.71;1728707;80;21057;-81
2022/05/19 01:03:20;;;;;;;20.75;8.60;;;;;;;3.01;82.95;99233.16;1728767;80;21053;-81
2022/05/19 01:05:53;;;;;;;18.70;8.65;;;;;;;3.12;79.26;99228.55;1717104;82;21254;-83
2022/05/19 01:08:36;;;;;;;18.80;8.70;;;;;;;3.17;81.56;99227.44;1704849;80;20994;-81
2022/05/19 01:11:03;;;;;;;17.92;8.83;;;;;;;3.20;81.59;99229.70;1721332;82;21079;-82
2022/05/19 01:13:31;;;;;;;17.90;7.78;;;;;;;3.24;81.36;99232.28;1740929;81;21017;-81
2022/05/19 01:15:58;;;;;;;19.32;10.03;;;;;;;3.24;80.36;99224.75;1710640;82;20994;-83
2022/05/19 01:18:25;;;;;;;18.80;8.55;;;;;;;3.19;81.70;99214.67;1704711;80;21121;-84
2022/05/19 01:20:51;;;;;;;15.83;7.65;;;;;;;3.11;80.44;99222.38;1728477;80;21029;-80
2022/05/19 01:23:34;;;;;;;31.07;7.28;;;;;;;3.07;81.07;99221.11;1728907;80;20974;-83
2022/05/19 01:26:18;;;;;;;10.93;6.78;;;;;;;2.99;81.27;99225.34;1714049;82;21043;-83
2022/05/19 01:28:45;;;;;;;14.33;6.55;;;;;;;2.94;81.23;99228.30;1711382;80;21108;-81
2022/05/19 01:31:36;;;;;;;11.45;6.65;;;;;;;2.89;81.31;99230.22;1743271;82;21952;-83
2022/05/19 01:34:04;;;;;;;13.85;7.33;;;;;;;2.88;82.03;99227.75;1743179;82;21021;-81
2022/05/19 01:36:30;;;;;;;13.10;6.67;;;;;;;2.85;81.77;99228.16;1743574;81;20977;-82
2022/05/19 01:39:12;;;;;;;11.22;6.42;;;;;;;2.76;81.75;99228.34;1743197;82;20905;-81
2022/05/19 01:42:28;;;;;;;13.35;6.97;;;;;;;2.63;80.85;99218.90;1743232;81;21083;-82
2022/05/19 01:45:14;;;;;;;14.33;6.83;;;;;;;2.59;80.47;99228.37;1621342;85;21357;-83
2022/05/19 01:48:02;;;;;;;14.25;6.53;;;;;;;2.47;82.17;99230.77;1695632;83;21504;-81
2022/05/19 01:50:51;;;;;;;15.98;7.58;;;;;;;2.43;82.89;99229.52;1738954;80;28693;-83
2022/05/19 01:53:40;;;;;;;14.70;7.67;;;;;;;2.44;83.83;99230.34;1743362;81;21013;-83
2022/05/19 01:56:22;;;;;;;19.07;8.65;;;;;;;2.52;83.35;99234.20;1706482;82;21033;-83
2022/05/19 01:59:14;;;;;;;13.68;7.15;;;;;;;2.57;82.68;99232.28;1733641;80;21189;-82
2022/05/19 02:01:43;;;;;;;12.98;6.95;;;;;;;2.56;83.02;99231.42;1728527;80;21133;-82
2022/05/19 02:04:20;;;;;;;14.63;7.78;;;;;;;2.50;82.68;99227.70;1725718;80;21006;-80
2022/05/19 02:06:56;;;;;;;14.63;7.15;;;;;;;2.39;82.64;99229.58;1713020;83;21023;-81
2022/05/19 02:09:36;;;;;;;14.07;6.67;;;;;;;2.26;83.44;99230.34;1725746;80;21469;-82
2022/05/19 02:12:02;;;;;;;17.45;6.80;;;;;;;2.22;83.16;99229.59;1743283;81;21298;-81
2022/05/19 02:14:39;;;;;;;13.50;7.75;;;;;;;2.16;83.88;99229.88;1743094;82;21021;-83
2022/05/19 02:17:09;;;;;;;17.90;6.95;;;;;;;2.16;84.41;99234.41;1719933;82;21324;-82
2022/05/19 02:19:42;;;;;;;16.30;6.75;;;;;;;2.16;83.51;99236.56;1721750;80;21112;-81
2022/05/19 02:22:11;;;;;;;14.20;6.65;;;;;;;2.20;83.65;99224.95;1716499;82;21026;-83
2022/05/19 02:24:40;;;;;;;17.90;6.72;;;;;;;2.22;84.64;99226.91;1726534;80;21306;-81
2022/05/19 02:27:27;;;;;;;18.17;7.30;;;;;;;2.24;85.01;99220.88;1719589;82;21008;-83
2022/05/19 02:29:53;;;;;;;16.07;7.65;;;;;;;2.28;84.59;99222.13;1669412;83;21005;-81
2022/05/19 02:32:20;;;;;;;11.38;6.70;;;;;;;2.31;84.44;99220.89;1704342;82;21554;-83
2022/05/19 02:34:45;;;;;;;10.88;5.87;;;;;;;2.32;83.92;99221.23;1727219;80;21062;-82
2022/05/19 02:37:11;;;;;;;10.50;5.15;;;;;;;2.28;83.27;99226.13;1743228;82;20941;-81
2022/05/19 02:39:37;;;;;;;13.60;6.50;;;;;;;2.14;84.04;99223.91;1733584;80;20946;-83
2022/05/19 02:42:04;;;;;;;12.93;6.62;;;;;;;2.12;83.53;99231.79;1717120;83;20970;-83
2022/05/19 02:44:30;;;;;;;11.43;6.72;;;;;;;2.11;84.13;99222.94;1727666;80;21009;-83
2022/05/19 02:46:56;;;;;;;15.03;6.87;;;;;;;2.14;84.87;99229.26;1742698;81;21107;-80
2022/05/19 02:49:22;;;;;;;10.82;5.92;;;;;;;2.15;84.41;99228.23;1743176;82;21121;-81
2022/05/19 02:51:48;;;;;;;12.30;6.00;;;;;;;2.17;84.34;99222.68;1723445;82;21006;-83
2022/05/19 02:54:20;;;;;;;15.03;5.95;;;;;;;2.15;85.65;99216.20;1714216;80;20958;-81
2022/05/19 02:56:42;;;;;;;13.45;7.28;;;;;;;2.20;85.12;99218.27;1731415;80;21612;-82
2022/05/19 02:59:07;;;;;;;14.98;5.45;;;;;;;2.22;85.19;99214.88;1743198;82;20961;-82
2022/05/19 03:01:33;;;;;;;12.90;6.28;;;;;;;2.22;84.51;99222.42;1743125;81;21237;-83
2022/05/19 03:03:59;;;;;;;14.70;5.45;;;;;;;2.29;83.68;99220.27;1737927;80;20919;-81
2022/05/19 03:06:25;;;;;;;17.73;6.08;;;;;;;2.35;83.34;99215.48;1713487;83;20978;-81
2022/05/19 03:08:51;;;;;;;13.10;6.22;;;;;;;2.34;83.24;99221.86;1720877;80;20890;-81
2022/05/19 03:11:17;;;;;;;14.45;6.53;;;;;;;2.34;83.45;99217.84;1729952;82;21673;-81
2022/05/19 03:13:43;;;;;;;12.10;6.03;;;;;;;2.34;84.48;99221.34;1715606;80;21149;-80
2022/05/19 03:16:09;;;;;;;15.18;6.33;;;;;;;2.36;83.69;99219.28;1734002;80;21583;-81
2022/05/19 03:18:34;;;;;;;13.60;5.75;;;;;;;2.30;83.69;99219.25;1743054;81;20870;-81
2022/05/19 03:21:00;;;;;;;15.88;6.37;;;;;;;2.27;83.46;99216.46;1743059;82;20854;-81
2022/05/19 03:23:26;;;;;;;12.98;6.78;;;;;;;2.26;83.72;99217.48;1743011;81;21052;-83
2022/05/19 03:25:54;;;;;;;16.00;6.67;;;;;;;2.24;83.68;99215.02;1716001;82;21153;-83
2022/05/19 03:28:20;;;;;;;13.58;5.70;;;;;;;2.21;83.81;99227.94;1703247;80;20983;-83
2022/05/19 03:30:46;;;;;;;13.60;6.25;;;;;;;2.20;84.20;99222.28;1736051;82;20962;-81
2022/05/19 03:33:12;;;;;;;11.53;5.22;;;;;;;2.18;84.43;99221.14;1713575;80;20954;-83
2022/05/19 03:35:40;;;;;;;10.55;4.70;;;;;;;2.25;83.98;99219.85;1719530;80;20902;-81
2022/05/19 03:38:07;;;;;;;11.35;5.78;;;;;;;2.31;82.97;99225.77;1743165;81;21103;-81
2022/05/19 03:40:33;;;;;;;10.50;5.15;;;;;;;2.32;83.54;99231.42;1743003;82;21049;-81
2022/05/19 03:42:58;;;;;;;14.25;5.47;;;;;;;2.35;83.92;99228.85;1721982;82;20905;-83
2022/05/19 03:45:25;;;;;;;12.25;5.15;;;;;;;2.42;83.48;99227.88;1743069;82;20870;-80
2022/05/19 03:47:50;;;;;;;12.28;6.00;;;;;;;2.47;83.37;99222.73;1743229;81;21017;-81
2022/05/19 03:50:16;;;;;;;17.42;7.33;;;;;;;2.55;83.33;99229.26;1743176;82;21170;-80
2022/05/19 03:52:42;;;;;;;13.22;7.78;;;;;;;2.62;83.20;99225.80;1743148;81;20953;-80
2022/05/19 03:55:11;;;;;;;19.70;9.35;;;;;;;2.65;83.09;99220.89;1720678;82;21537;-81
2022/05/19 03:57:37;;;;;;;19.30;7.78;;;;;;;2.73;82.91;99226.04;1713738;82;24016;-81
2022/05/19 04:00:06;;;;;;;15.30;7.42;;;;;;;2.90;82.05;99225.69;1706510;80;21604;-81
2022/05/19 04:02:32;;;;;;;15.63;7.12;;;;;;;2.95;82.13;99217.38;1674223;85;21560;-83
2022/05/19 04:04:58;;;;;;;12.78;5.58;;;;;;;3.08;81.80;99216.09;1719458;80;22752;-82
2022/05/19 04:07:24;;;;;;;11.45;6.22;;;;;;;3.21;81.76;99219.30;1704090;82;20859;-84
2022/05/19 04:09:50;;;;;;;14.95;6.80;;;;;;;3.34;80.74;99213.98;1730045;80;20881;-81
2022/05/19 04:12:20;;;;;;;16.32;5.60;;;;;;;3.45;80.60;99212.55;1743122;81;21604;-81
2022/05/19 04:14:46;;;;;;;13.93;6.72;;;;;;;3.47;80.51;99211.81;1732424;80;21182;-81
2022/05/19 04:17:12;;;;;;;13.85;6.17;;;;;;;3.56;80.13;99214.60;1728633;80;20971;-81
2022/05/19 04:19:39;;;;;;;13.93;5.80;;;;;;;3.65;80.14;99213.88;1737261;80;20965;-81
2022/05/19 04:22:05;;;;;;;13.28;5.80;;;;;;;3.77;79.77;99212.25;1743208;81;21529;-84
2022/05/19 04:24:31;;;;;;;8.50;5.95;;;;;;;3.90;79.10;99209.55;1735820;82;20921;-81
2022/05/19 04:26:56;;;;;;;10.88;6.17;;;;;;;4.03;79.08;99209.23;1710454;82;21101;-83
2022/05/19 04:29:22;;;;;;;9.88;6.05;;;;;;;4.22;78.54;99213.73;1741299;80;21663;-83
2022/05/19 04:31:48;;;;;;;8.05;5.50;;;;;;;4.42;78.14;99211.00;1743374;81;20898;-81
2022/05/19 04:34:14;;;;;;;8.45;4.95;;;;;;;4.55;77.72;99213.66;1731914;82;21558;-82
2022/05/19 04:36:40;;;;;;;13.80;6.62;;;;;;;4.70;77.05;99215.56;1707231;82;20895;-83
2022/05/19 04:39:06;;;;;;;8.95;6.47;;;;;;;4.89;76.67;99219.20;1712798;80;21250;-81
2022/05/19 04:41:32;;;;;;;19.27;5.92;;;;;;;5.12;76.44;99217.83;1728297;80;20994;-83
2022/05/19 04:43:58;;;;;;;14.95;6.53;;;;;;;5.30;75.35;99217.44;1733393;82;21555;-83
2022/05/19 04:46:24;;;;;;;15.30;6.67;;;;;;;5.55;75.12;99222.00;1728333;82;20954;-83
2022/05/19 04:48:50;;;;;;;11.38;6.03;;;;;;;5.72;74.63;99223.63;1717375;80;21081;-84
2022/05/19 04:51:16;;;;;;;10.03;5.75;;;;;;;5.87;73.46;99217.41;1728383;82;21163;-82
2022/05/19 04:53:41;;;;;;;12.28;6.60;;;;;;;6.07;73.74;99220.80;1737668;80;20946;-82
2022/05/19 04:56:07;;;;;;;13.78;7.20;;;;;;;6.26;73.50;99223.52;1708565;82;20970;-83
2022/05/19 04:58:33;;;;;;;13.05;5.92;;;;;;;6.42;73.29;99218.38;1732891;82;20866;-85
2022/05/19 05:00:59;;;;;;;9.85;5.20;;;;;;;6.67;73.14;99220.17;1722249;82;20973;-85
2022/05/19 05:03:27;;;;;;;16.17;5.58;;;;;;;6.70;71.63;99214.33;1739240;81;22019;-82
2022/05/19 05:05:53;;;;;;;13.35;5.97;;;;;;;7.01;71.99;99210.10;1724362;82;20977;-86
2022/05/19 05:08:19;;;;;;;13.58;6.20;;;;;;;7.32;69.60;99197.42;1735976;81;20862;-85
2022/05/19 05:10:45;;;;;;;15.10;7.22;;;;;;;7.32;69.60;99197.42;1712870;82;20966;-83
2022/05/19 05:13:13;;;;;;;14.28;6.10;;;;;;;7.61;70.55;99206.02;1706326;83;21079;-85
2022/05/19 05:15:40;;;;;;;11.57;6.17;;;;;;;7.78;69.91;99199.95;1728781;82;21509;-83
2022/05/19 05:18:06;;;;;;;10.43;5.95;;;;;;;7.95;69.16;99200.91;1742974;81;21053;-83
2022/05/19 05:20:33;;;;;;;12.37;6.70;;;;;;;8.08;68.23;99200.66;1736519;80;21117;-85
2022/05/19 05:22:59;;;;;;;13.75;6.22;;;;;;;8.41;68.46;99200.62;1713338;82;21015;-84
2022/05/19 05:25:29;;;;;;;22.80;9.03;;;;;;;8.70;67.81;99202.84;1721200;80;20912;-82
2022/05/19 05:27:52;;;;;;;18.77;7.45;;;;;;;8.90;66.17;99199.22;1713787;82;21084;-85
2022/05/19 05:30:18;;;;;;;11.48;6.00;;;;;;;9.18;65.57;99198.41;1741303;82;21026;-85
2022/05/19 05:32:44;;;;;;;20.32;8.23;;;;;;;9.43;64.10;99197.23;1740530;81;20990;-82
2022/05/19 05:35:10;;;;;;;14.25;6.17;;;;;;;9.56;64.07;99198.25;1743172;82;21046;-82
2022/05/19 05:37:36;;;;;;;20.27;12.18;;;;;;;9.73;63.78;99194.21;1743122;81;20968;-81
2022/05/19 05:40:07;;;;;;;25.80;8.98;;;;;;;9.95;63.99;99189.70;1737437;82;21124;-84
2022/05/19 05:42:34;;;;;;;9.85;5.50;;;;;;;10.30;63.94;99196.75;1722099;82;21048;-84
2022/05/19 05:45:00;;;;;;;15.45;6.03;;;;;;;10.59;63.24;99197.41;1725736;80;21036;-84
2022/05/19 05:47:26;;;;;;;15.48;5.85;;;;;;;10.74;61.66;99198.97;1729380;81;21001;-84
2022/05/19 05:49:52;;;;;;;9.25;5.22;;;;;;;10.93;60.53;99194.04;1726938;82;21647;-84
2022/05/19 05:52:18;;;;;;;14.70;5.65;;;;;;;11.05;60.78;99193.92;1734772;82;21651;-81
2022/05/19 05:54:44;;;;;;;13.43;6.05;;;;;;;11.31;60.40;99198.55;1730738;82;20909;-80
2022/05/19 05:57:10;;;;;;;10.68;5.72;;;;;;;11.54;59.24;99185.21;1739557;80;20956;-84
2022/05/19 05:59:36;;;;;;;10.45;4.58;;;;;;;11.66;58.75;99182.31;1742825;82;21809;-81
2022/05/19 06:02:02;;;;;;;10.30;4.75;;;;;;;11.79;57.53;99180.52;1732332;80;20957;-81
2022/05/19 06:04:28;;;;;;;10.82;5.17;;;;;;;11.89;56.56;99183.36;1751850;80;21465;-81
2022/05/19 06:06:54;;;;;;;7.15;4.60;;;;;;;12.02;56.81;99177.47;1720619;80;21076;-85
2022/05/19 06:09:20;;;;;;;10.68;5.85;;;;;;;12.15;55.84;99176.22;1721216;80;21667;-84
2022/05/19 06:11:46;;;;;;;9.00;4.20;;;;;;;12.33;55.81;99183.11;1721141;81;20898;-84
2022/05/19 06:14:12;;;;;;;10.45;3.77;;;;;;;12.71;54.87;99184.66;1729918;82;20901;-84
2022/05/19 06:16:38;;;;;;;12.03;5.17;;;;;;;12.85;54.86;99189.89;1716962;82;21638;-81
2022/05/19 06:19:04;;;;;;;15.95;5.58;;;;;;;13.04;54.30;99181.25;1737667;80;20969;-82
2022/05/19 06:21:29;;;;;;;11.93;4.55;;;;;;;13.24;54.58;99189.49;1731674;80;23049;-84
2022/05/19 06:23:56;;;;;;;8.83;4.30;;;;;;;13.45;52.90;99184.92;1727626;80;20929;-85
2022/05/19 06:26:22;;;;;;;13.03;6.70;;;;;;;13.67;53.37;99181.94;1721867;80;21504;-84
2022/05/19 06:28:48;;;;;;;8.15;4.87;;;;;;;13.95;52.30;99181.95;1728216;81;21141;-85
2022/05/19 06:31:14;;;;;;;7.03;4.62;;;;;;;14.08;52.26;99177.30;1722993;80;21016;-84
2022/05/19 06:33:39;;;;;;;10.98;5.15;;;;;;;14.30;51.83;99177.81;1721893;80;20930;-84
2022/05/19 06:36:09;;;;;;;9.78;5.03;;;;;;;14.66;51.29;99174.47;1725904;80;21160;-85
2022/05/19 06:38:33;;;;;;;10.20;4.08;;;;;;;15.04;50.92;99173.50;1730308;81;21009;-84
2022/05/19 06:43:43;;;;;;;10.95;4.45;;;;;;;15.56;48.72;99160.34;1735677;80;21037;-85
2022/05/19 06:46:09;;;;;;;6.55;3.90;;;;;;;15.67;45.92;99154.55;1719139;80;20985;-81
2022/05/19 06:48:35;;;;;;;10.45;3.92;;;;;;;15.86;48.87;99156.57;1735641;80;20842;-81
2022/05/19 06:51:01;;;;;;;9.65;3.92;;;;;;;16.04;47.85;99153.94;1742263;80;20965;-85
2022/05/19 06:53:28;;;;;;;5.28;3.47;;;;;;;16.18;46.71;99144.52;1748603;80;21139;-85
2022/05/19 06:55:54;;;;;;;10.85;3.60;;;;;;;16.42;47.11;99137.70;1741059;80;21919;-85
2022/05/19 06:58:20;;;;;;;5.17;3.15;;;;;;;16.68;46.40;99143.69;1720282;80;20866;-85
2022/05/19 07:00:46;;;;;;;8.78;2.90;;;;;;;16.82;45.08;99136.41;1736716;80;20905;-85
2022/05/19 07:03:12;;;;;;;4.03;2.70;;;;;;;17.14;43.14;99138.45;1720115;80;20897;-85
2022/05/19 07:05:39;;;;;;;4.58;2.62;;;;;;;17.67;41.41;99127.22;1734494;80;21117;-85
2022/05/19 07:08:06;;;;;;;5.95;2.35;;;;;;;17.80;43.23;99131.16;1735956;80;21477;-85
2022/05/19 07:10:33;;;;;;;5.58;2.77;;;;;;;18.20;41.28;99124.67;1730665;80;21222;-85
2022/05/19 07:12:59;;;;;;;4.00;2.72;;;;;;;18.30;41.06;99126.69;1726213;80;21069;-86
2022/05/19 07:15:27;;;;;;;7.85;2.70;;;;;;;18.57;38.59;99121.77;1731256;80;20915;-85
2022/05/19 07:17:53;;;;;;;7.28;2.92;;;;;;;18.49;38.43;99122.48;1715057;81;21331;-85
2022/05/19 07:23:04;;;;;;;2.90;2.35;;;;;;;19.10;37.76;99119.84;1711277;80;20981;-85
2022/05/19 07:25:30;;;;;;;4.97;3.20;;;;;;;19.73;36.30;99113.97;1735373;80;21009;-86
2022/05/19 07:27:56;;;;;;;5.20;2.35;;;;;;;19.76;35.29;99111.19;1732558;80;21709;-86
2022/05/19 07:30:22;;;;;;;5.45;2.35;;;;;;;20.22;36.01;99105.28;1725586;80;21881;-85
2022/05/19 07:32:48;;;;;;;6.85;2.20;;;;;;;21.06;34.47;99107.02;1729429;80;20929;-86
2022/05/19 07:35:14;;;;;;;4.15;2.58;;;;;;;21.61;33.25;99106.39;1726040;80;20905;-85
2022/05/19 07:37:40;;;;;;;3.80;2.20;;;;;;;22.09;32.92;99102.02;1732956;80;21053;-87
2022/05/19 07:40:07;;;;;;;6.12;2.52;;;;;;;22.55;33.61;99100.37;1733452;80;21021;-86
2022/05/19 07:42:33;;;;;;;3.62;2.27;;;;;;;23.11;30.80;99106.57;1732464;80;21286;-86
2022/05/19 07:44:59;;;;;;;6.30;2.27;;;;;;;23.27;30.96;99102.06;1724028;81;22328;-82
2022/05/19 07:47:25;;;;;;;4.90;2.65;;;;;;;23.83;29.60;99101.16;1734511;80;20917;-87
2022/05/19 07:49:54;;;;;;;2.72;1.85;;;;;;;23.96;29.49;99097.87;1731729;80;20886;-83
2022/05/19 07:52:19;;;;;;;3.40;2.02;;;;;;;24.35;29.17;99097.02;1712280;80;20961;-83
2022/05/19 07:54:46;;;;;;;5.62;2.08;;;;;;;24.82;28.43;99091.03;1729162;80;39267;-82
2022/05/19 07:57:12;;;;;;;7.25;2.67;;;;;;;25.22;27.28;99087.76;1732028;80;20933;-83
2022/05/19 07:59:38;;;;;;;5.78;2.15;;;;;;;25.31;26.53;99089.81;1737642;80;20980;-83
2022/05/19 08:02:05;;;;;;;3.10;1.77;;;;;;;25.58;25.62;99091.56;1729773;80;20961;-83
2022/05/19 08:04:31;;;;;;;8.28;2.17;;;;;;;24.72;25.22;99079.84;1719688;81;21099;-83
2022/05/19 08:06:56;;;;;;;5.37;2.00;;;;;;;25.95;25.26;99076.13;1708294;82;21090;-83
2022/05/19 08:12:07;;;;;;;7.00;2.47;;;;;;;26.08;25.14;99074.91;1725129;80;21249;-83
2022/05/19 08:17:18;;;;;;;5.65;2.20;;;;;;;27.52;25.33;99063.39;1720255;81;21053;-84
2022/05/19 08:19:45;;;;;;;4.42;1.60;;;;;;;28.44;24.61;99062.69;1723346;80;21160;-84
2022/05/19 08:22:11;;;;;;;4.30;1.50;;;;;;;27.93;22.94;99060.99;1729538;80;21515;-83
2022/05/19 08:24:37;;;;;;;4.20;2.67;;;;;;;28.49;22.83;99059.00;1722132;81;20919;-84
2022/05/19 08:27:03;;;;;;;5.78;1.82;;;;;;;28.13;20.81;99055.39;1730709;80;20965;-84
2022/05/19 08:29:29;;;;;;;4.08;1.50;;;;;;;29.02;20.85;99046.46;1710727;82;21099;-84
2022/05/19 08:31:55;;;;;;;7.58;2.27;;;;;;;29.72;20.53;99051.33;1732975;80;21214;-84
2022/05/19 08:34:22;;;;;;;2.65;1.72;;;;;;;29.31;18.91;99043.47;1734307;80;21068;-84
2022/05/19 08:36:48;;;;;;;5.15;1.45;;;;;;;29.62;20.42;99040.05;1698986;82;22369;-84
2022/05/19 08:39:14;;;;;;;6.78;1.70;;;;;;;29.98;19.06;99037.02;1730405;80;21115;-84
2022/05/19 08:41:45;;;;;;;3.45;1.60;;;;;;;30.24;19.88;99037.48;1727013;80;21218;-84
2022/05/19 08:44:30;;;;;;;6.55;1.72;;;;;;;29.74;17.35;99037.00;1730021;80;21129;-84
2022/05/19 08:46:57;;;;;;;8.43;1.60;;;;;;;30.95;18.62;99033.03;1717285;80;21100;-89
2022/05/19 08:49:40;;;;;;;4.10;2.02;;;;;;;31.70;16.96;99034.13;1727901;80;20970;-89
2022/05/19 08:52:18;;;;;;;3.47;1.62;;;;;;;32.49;15.69;99025.25;1737458;80;21587;-87
2022/05/19 08:54:47;;;;;;;3.75;1.20;;;;;;;32.49;15.69;99025.25;1728896;80;21118;-89
2022/05/19 08:57:30;;;;;;;4.33;1.80;;;;;;;31.72;15.45;99024.14;1726459;80;22239;-89
2022/05/19 09:00:11;;;;;;;12.73;1.92;;;;;;;32.23;16.51;99027.84;1727310;80;21574;-89
2022/05/19 09:03:01;;;;;;;7.10;1.57;;;;;;;32.73;16.99;99023.02;1737990;80;21140;-90
2022/05/19 09:05:55;;;;;;;4.87;2.20;;;;;;;33.34;14.85;99013.01;1729712;80;21123;-89
2022/05/19 09:08:48;;;;;;;5.85;1.90;;;;;;;32.94;14.91;99008.75;1724394;82;21159;-88
2022/05/19 09:11:19;;;;;;;3.33;1.50;;;;;;;32.66;15.62;99013.20;1719626;80;21112;-89
2022/05/19 09:14:13;;;;;;;2.20;1.75;;;;;;;33.36;14.42;99012.81;1706777;80;21497;-89
2022/05/19 09:16:39;;;;;;;2.40;1.47;;;;;;;33.89;15.13;99018.75;1725941;80;21097;-89
2022/05/19 09:19:48;;;;;;;3.92;1.17;;;;;;;34.38;13.02;99018.77;1727936;80;20973;-89
2022/05/19 09:22:17;;;;;;;3.05;1.30;;;;;;;34.30;13.06;99010.20;1723257;80;21537;-89
2022/05/19 09:24:46;;;;;;;3.42;1.30;;;;;;;33.97;14.69;99020.91;1725648;80;21574;-89
2022/05/19 09:27:12;;;;;;;3.67;1.52;;;;;;;33.81;14.39;99017.16;1739727;80;21505;-89
2022/05/19 09:29:50;;;;;;;6.28;2.10;;;;;;;33.71;13.89;99013.02;1722854;80;20998;-89
2022/05/19 09:32:29;;;;;;;6.03;2.02;;;;;;;33.69;14.82;99010.63;1719467;80;21009;-87
2022/05/19 09:35:16;;;;;;;8.70;2.42;;;;;;;34.57;14.25;99001.94;1727235;80;21522;-89
2022/05/19 09:37:49;;;;;;;3.17;1.35;;;;;;;35.09;13.23;98996.16;1723844;81;21034;-88
2022/05/19 09:40:25;;;;;;;3.85;1.42;;;;;;;34.57;14.36;99000.53;1730677;80;21584;-89
2022/05/19 09:43:03;;;;;;;4.03;1.52;;;;;;;33.96;14.52;99002.44;1732207;80;21679;-88
2022/05/19 09:45:29;;;;;;;4.60;1.92;;;;;;;34.30;13.43;98995.53;1685194;82;21065;-89
2022/05/19 09:48:01;;;;;;;4.78;1.20;;;;;;;35.59;14.30;98995.71;1666374;82;21081;-90
2022/05/19 09:50:29;;;;;;;3.50;1.37;;;;;;;34.19;12.72;99001.26;1729706;80;21876;-90
2022/05/19 09:53:04;;;;;;;2.70;1.30;;;;;;;35.01;12.69;98998.26;1730430;80;21045;-89
2022/05/19 09:55:30;;;;;;;3.52;1.47;;;;;;;34.54;12.82;98997.95;1727553;80;21620;-89
2022/05/19 09:58:02;;;;;;;3.70;1.50;;;;;;;35.66;12.43;98994.02;1724938;80;20918;-89
2022/05/19 10:00:44;;;;;;;7.60;1.20;;;;;;;35.67;12.56;98995.00;1732731;80;21155;-89
2022/05/19 10:03:20;;;;;;;2.35;1.17;;;;;;;36.38;11.95;98992.48;1727330;80;23024;-85
2022/05/19 10:05:49;;;;;;;6.17;1.27;;;;;;;35.93;11.22;98987.78;1674634;84;21140;-85
2022/05/19 10:08:19;;;;;;;2.08;1.37;;;;;;;35.15;11.79;98982.61;1670858;85;21085;-85
2022/05/19 10:11:05;;;;;;;5.50;1.35;;;;;;;36.01;12.42;98976.58;1681038;82;21467;-85
2022/05/19 10:13:43;;;;;;;4.17;2.22;;;;;;;36.67;12.31;98986.33;1729494;80;21029;-85
2022/05/19 10:16:15;;;;;;;5.50;1.60;;;;;;;37.37;11.04;98981.12;1725860;80;22344;-85
2022/05/19 10:19:12;;;;;;;5.12;1.25;;;;;;;36.93;11.71;98975.55;1717678;80;20986;-85
2022/05/19 10:22:09;;;;;;;2.27;1.37;;;;;;;36.85;11.53;98978.34;1726250;80;21147;-85
2022/05/19 10:25:13;;;;;;;10.03;1.62;;;;;;;35.91;11.35;98964.87;1725812;80;21745;-84
2022/05/19 10:31:31;;;;;;;4.97;1.25;;;;;;;37.02;11.29;98973.56;1721904;81;21823;-84
2022/05/19 10:34:39;;;;;;;5.00;1.37;;;;;;;37.35;11.43;98967.44;1735213;80;21036;-85
2022/05/19 10:37:37;;;;;;;3.22;1.32;;;;;;;38.26;10.80;98967.71;1718064;80;21155;-85
2022/05/19 10:40:47;;;;;;;5.30;1.70;;;;;;;38.62;9.83;98970.38;1722479;80;21458;-84
2022/05/19 10:43:42;;;;;;;13.35;3.83;;;;;;;38.49;10.24;98961.05;1713508;81;21111;-84
2022/05/19 10:46:11;;;;;;;4.97;1.62;;;;;;;39.29;10.11;98955.56;1699434;81;21859;-85
2022/05/19 10:48:57;;;;;;;11.03;2.17;;;;;;;38.88;9.27;98959.34;1727703;80;21084;-84
2022/05/19 10:51:50;;;;;;;6.67;2.27;;;;;;;38.79;8.74;98953.54;1714116;80;21112;-85
2022/05/19 10:54:50;;;;;;;15.10;3.85;;;;;;;37.91;10.23;98940.48;1716754;80;21094;-85
2022/05/19 10:57:43;;;;;;;4.95;2.02;;;;;;;39.02;9.38;98936.91;1721076;80;21058;-84
2022/05/19 11:00:18;;;;;;;2.80;1.40;;;;;;;38.73;9.31;98935.53;1713841;80;21073;-84
2022/05/19 11:02:49;;;;;;;6.08;1.37;;;;;;;38.74;9.20;98930.04;1739255;80;21061;-85
2022/05/19 11:05:30;;;;;;;4.10;1.10;;;;;;;38.96;9.06;98918.07;1731354;80;21576;-85
2022/05/19 11:08:19;;;;;;;11.10;1.45;;;;;;;38.49;8.96;98915.14;1740491;80;21038;-84
2022/05/19 11:11:03;;;;;;;2.25;1.15;;;;;;;38.61;9.30;98912.96;1741676;80;21005;-90
2022/05/19 11:13:55;;;;;;;1.90;1.20;;;;;;;39.34;8.98;98910.45;1732117;80;21094;-90
2022/05/19 11:16:30;;;;;;;5.75;1.30;;;;;;;39.68;8.11;98911.22;1671985;83;21097;-90
2022/05/19 11:19:14;;;;;;;5.12;1.40;;;;;;;37.91;9.69;98910.00;1671773;83;21149;-89
2022/05/19 11:21:45;;;;;;;6.12;1.45;;;;;;;38.60;9.42;98912.00;1655577;84;21519;-90
2022/05/19 11:24:32;;;;;;;3.85;1.77;;;;;;;39.60;8.67;98901.35;1731365;80;21093;-89
2022/05/19 11:27:11;;;;;;;4.53;1.20;;;;;;;39.53;8.62;98899.34;1720741;80;26356;-90
2022/05/19 11:29:42;;;;;;;6.17;1.50;;;;;;;38.82;9.32;98896.02;1731615;80;21068;-89
2022/05/19 11:32:15;;;;;;;2.92;1.45;;;;;;;39.59;9.06;98894.72;1741232;81;21474;-89
2022/05/19 11:34:48;;;;;;;5.53;1.35;;;;;;;39.93;9.21;98899.66;1720259;80;21120;-90
2022/05/19 11:37:45;;;;;;;3.87;1.57;;;;;;;40.16;9.03;98892.17;1722606;80;21271;-89
2022/05/19 11:40:33;;;;;;;3.42;1.25;;;;;;;39.64;8.31;98896.34;1732137;80;21137;-90
2022/05/19 11:43:19;;;;;;;2.98;1.30;;;;;;;39.75;7.94;98893.17;1731384;80;21127;-89
2022/05/19 11:46:12;;;;;;;11.12;1.17;;;;;;;40.84;8.46;98890.51;1696145;82;21085;-91
2022/05/19 11:55:32;;;;;;;1.90;1.20;;;;;;;40.81;8.26;98881.50;1728803;80;21998;-89
2022/05/19 11:58:04;;;;;;;1.47;1.10;;;;;;;40.69;7.68;98875.92;1721732;80;20977;-90
2022/05/19 12:00:43;;;;;;;3.27;1.30;;;;;;;40.60;8.32;98869.55;1726926;80;21789;-85
2022/05/19 12:03:23;;;;;;;2.15;1.37;;;;;;;41.07;7.97;98867.16;1739668;80;21080;-85
2022/05/19 12:05:59;;;;;;;5.65;1.40;;;;;;;41.28;7.92;98864.08;1743088;80;21064;-85
2022/05/19 12:08:33;;;;;;;4.92;1.10;;;;;;;40.39;7.08;98859.73;1718041;80;21601;-85
2022/05/19 12:11:25;;;;;;;3.83;1.20;;;;;;;39.68;8.08;98850.87;1729195;80;21068;-85
2022/05/19 12:14:23;;;;;;;3.83;1.20;;;;;;;40.71;8.11;98844.37;1705833;81;21016;-85
2022/05/19 12:17:05;;;;;;;3.92;1.37;;;;;;;39.93;7.53;98842.92;1733171;80;21065;-85